Mitra — PBZW — position and weather

sailwx.info

Track history (hours):
 
Tides and Currents Weather Stations Pressure Air Temp Water Temp Dewpoint Dewpoint Depression Visibility Wind Speed Wind Dir Waves Ship Positions

Oceanographic research ship Mitra (Netherlands)

Detailed information on ship capabilities available from University of Delaware's Ocean Information Center.

Last reported at 2019-Jan-02 05:09 UTC. Time now 2019-Feb-21 12:00 UTC.
Position S 24°28' W 046°34'.
Warning: this ship's position is 50 days out of date.

Length 223 m; draft 10.8 m.

Type: Ship (hazmat cat A). MMSI: 244670078.

Date/timePositionNaut miles runAvg speedWind from/ knotsBaromVisibWave heightAir tempDewpointWater temp
2019-Jan-02 05:09S 24°28' W 046°34'212.7
2019-Jan-02 05:00S 24°26' W 046°33'1012.8
2019-Jan-02 04:14S 24°17' W 046°28'313.0
2019-Jan-02 04:00S 24°15' W 046°27'613.0
2019-Jan-02 03:30S 24°09' W 046°24'611.4
2019-Jan-02 03:00S 24°04' W 046°22'1 0.0
2018-Dec-31 13:43S 24°02' W 046°21'2 7.8
2018-Dec-31 13:29S 24°04' W 046°22'4 7.6
2018-Dec-31 13:00S 24°07' W 046°22'3 5.2
2018-Dec-31 12:30S 24°09' W 046°20'0 0.2
2018-Dec-31 11:58S 24°09' W 046°20'0 0.0
2018-Dec-31 11:28S 24°09' W 046°20'0 0.0
2018-Dec-31 10:55S 24°09' W 046°20'0 0.0
2018-Dec-31 10:28S 24°09' W 046°20'0 0.0
2018-Dec-31 09:58S 24°09' W 046°20'0 0.0
2018-Dec-31 09:29S 24°09' W 046°20'0 0.0
2018-Dec-31 08:52S 24°09' W 046°20'0 0.0
2018-Dec-31 08:28S 24°09' W 046°20'0 0.0
2018-Dec-31 07:58S 24°09' W 046°20'0 0.0
2018-Dec-31 07:28S 24°09' W 046°20'0 0.0
2018-Dec-31 06:58S 24°09' W 046°20'0 0.0
2018-Dec-31 06:28S 24°09' W 046°20'0 0.0
2018-Dec-31 05:58S 24°09' W 046°20'0 0.0
2018-Dec-31 05:28S 24°09' W 046°20'0 0.0
2018-Dec-31 04:58S 24°09' W 046°20'0 0.0
2018-Dec-31 04:28S 24°09' W 046°20'0 0.0
2018-Dec-31 03:58S 24°09' W 046°20'0 0.0
2018-Dec-31 02:58S 24°09' W 046°20'0 0.0
2018-Dec-31 02:28S 24°09' W 046°20'0 0.0
2018-Dec-31 01:52S 24°09' W 046°20'0 0.0
2018-Dec-31 01:25S 24°09' W 046°20'0 0.0
2018-Dec-31 00:58S 24°09' W 046°20'0 0.0
2018-Dec-31 00:16S 24°09' W 046°20'0 0.0
2018-Dec-30 23:52S 24°09' W 046°20'0 0.0
2018-Dec-30 23:28S 24°09' W 046°20'0 0.0
2018-Dec-30 22:58S 24°09' W 046°20'0 0.0
2018-Dec-30 22:28S 24°09' W 046°20'0 0.0
2018-Dec-30 21:58S 24°09' W 046°20'0 0.0
2018-Dec-30 21:22S 24°09' W 046°20'0 0.0
2018-Dec-30 20:58S 24°09' W 046°20'0 0.0
2018-Dec-30 20:28S 24°09' W 046°20'0 0.0
2018-Dec-30 19:58S 24°09' W 046°20'0 0.1
2018-Dec-30 19:28S 24°09' W 046°20'0 0.0
2018-Dec-30 18:52S 24°09' W 046°20'0 0.0
2018-Dec-30 18:28S 24°09' W 046°20'0 0.0
2018-Dec-30 17:58S 24°09' W 046°20'0 0.0
2018-Dec-30 17:22S 24°09' W 046°20'0 0.0
2018-Dec-30 16:46S 24°09' W 046°20'0 0.0
2018-Dec-30 16:25S 24°09' W 046°20'0 0.0
2018-Dec-30 15:58S 24°09' W 046°20'0 0.1
2018-Dec-30 15:28S 24°09' W 046°20'0 0.0
2018-Dec-30 14:58S 24°09' W 046°20'0 0.1
2018-Dec-30 14:28S 24°09' W 046°20'0 0.1
2018-Dec-30 13:58S 24°09' W 046°20'0 0.1
2018-Dec-30 13:30S 24°09' W 046°20'3 6.4
2018-Dec-30 13:00S 24°12' W 046°22'6 8.6
2018-Dec-30 12:21S 24°17' W 046°21'411.7
2018-Dec-30 12:00S 24°20' W 046°18'  
2018-Dec-24 06:37N 51°53' E 004°38'  
Track history (hours):
 
Tides and Currents Weather Stations Pressure Air Temp Water Temp Dewpoint Dewpoint Depression Visibility Wind Speed Wind Dir Waves Ship Positions

Oceanographic research ship Mitra (Netherlands)

Detailed information on ship capabilities available from University of Delaware's Ocean Information Center.

Last reported at 2019-Jan-02 05:09 UTC. Time now 2019-Feb-21 12:00 UTC.
Position S 24°28' W 046°34'.
Warning: this ship's position is 50 days out of date.

Length 223 m; draft 10.8 m.

Type: Ship (hazmat cat A). MMSI: 244670078.

Date/timePositionNaut miles runAvg speedWind from/ knotsBaromVisibWave heightAir tempDewpointWater temp
2019-Jan-02 05:09S 24°28' W 046°34'212.7
2019-Jan-02 05:00S 24°26' W 046°33'1012.8
2019-Jan-02 04:14S 24°17' W 046°28'313.0
2019-Jan-02 04:00S 24°15' W 046°27'613.0
2019-Jan-02 03:30S 24°09' W 046°24'611.4
2019-Jan-02 03:00S 24°04' W 046°22'1 0.0
2018-Dec-31 13:43S 24°02' W 046°21'2 7.8
2018-Dec-31 13:29S 24°04' W 046°22'4 7.6
2018-Dec-31 13:00S 24°07' W 046°22'3 5.2
2018-Dec-31 12:30S 24°09' W 046°20'0 0.2
2018-Dec-31 11:58S 24°09' W 046°20'0 0.0
2018-Dec-31 11:28S 24°09' W 046°20'0 0.0
2018-Dec-31 10:55S 24°09' W 046°20'0 0.0
2018-Dec-31 10:28S 24°09' W 046°20'0 0.0
2018-Dec-31 09:58S 24°09' W 046°20'0 0.0
2018-Dec-31 09:29S 24°09' W 046°20'0 0.0
2018-Dec-31 08:52S 24°09' W 046°20'0 0.0
2018-Dec-31 08:28S 24°09' W 046°20'0 0.0
2018-Dec-31 07:58S 24°09' W 046°20'0 0.0
2018-Dec-31 07:28S 24°09' W 046°20'0 0.0
2018-Dec-31 06:58S 24°09' W 046°20'0 0.0
2018-Dec-31 06:28S 24°09' W 046°20'0 0.0
2018-Dec-31 05:58S 24°09' W 046°20'0 0.0
2018-Dec-31 05:28S 24°09' W 046°20'0 0.0
2018-Dec-31 04:58S 24°09' W 046°20'0 0.0
2018-Dec-31 04:28S 24°09' W 046°20'0 0.0
2018-Dec-31 03:58S 24°09' W 046°20'0 0.0
2018-Dec-31 02:58S 24°09' W 046°20'0 0.0
2018-Dec-31 02:28S 24°09' W 046°20'0 0.0
2018-Dec-31 01:52S 24°09' W 046°20'0 0.0
2018-Dec-31 01:25S 24°09' W 046°20'0 0.0
2018-Dec-31 00:58S 24°09' W 046°20'0 0.0
2018-Dec-31 00:16S 24°09' W 046°20'0 0.0
2018-Dec-30 23:52S 24°09' W 046°20'0 0.0
2018-Dec-30 23:28S 24°09' W 046°20'0 0.0
2018-Dec-30 22:58S 24°09' W 046°20'0 0.0
2018-Dec-30 22:28S 24°09' W 046°20'0 0.0
2018-Dec-30 21:58S 24°09' W 046°20'0 0.0
2018-Dec-30 21:22S 24°09' W 046°20'0 0.0
2018-Dec-30 20:58S 24°09' W 046°20'0 0.0
2018-Dec-30 20:28S 24°09' W 046°20'0 0.0
2018-Dec-30 19:58S 24°09' W 046°20'0 0.1
2018-Dec-30 19:28S 24°09' W 046°20'0 0.0
2018-Dec-30 18:52S 24°09' W 046°20'0 0.0
2018-Dec-30 18:28S 24°09' W 046°20'0 0.0
2018-Dec-30 17:58S 24°09' W 046°20'0 0.0
2018-Dec-30 17:22S 24°09' W 046°20'0 0.0
2018-Dec-30 16:46S 24°09' W 046°20'0 0.0
2018-Dec-30 16:25S 24°09' W 046°20'0 0.0
2018-Dec-30 15:58S 24°09' W 046°20'0 0.1
2018-Dec-30 15:28S 24°09' W 046°20'0 0.0
2018-Dec-30 14:58S 24°09' W 046°20'0 0.1
2018-Dec-30 14:28S 24°09' W 046°20'0 0.1
2018-Dec-30 13:58S 24°09' W 046°20'0 0.1
2018-Dec-30 13:30S 24°09' W 046°20'3 6.4
2018-Dec-30 13:00S 24°12' W 046°22'6 8.6
2018-Dec-30 12:21S 24°17' W 046°21'411.7
2018-Dec-30 12:00S 24°20' W 046°18'  
2018-Dec-24 06:37N 51°53' E 004°38'  

Dump ship's entire track history